sensor_id;sensor_type;location;lat;lon;timestamp;temperature;humidity
61398;DHT22;47267;48.130;-2.040;2022-08-19T00:01:37;25.50;56.90
61398;DHT22;47267;48.130;-2.040;2022-08-19T00:04:07;25.40;56.70
61398;DHT22;47267;48.130;-2.040;2022-08-19T00:06:34;25.40;56.70
61398;DHT22;47267;48.130;-2.040;2022-08-19T00:09:02;25.40;56.70
61398;DHT22;47267;48.130;-2.040;2022-08-19T00:11:31;25.40;56.80
61398;DHT22;47267;48.130;-2.040;2022-08-19T00:14:00;25.40;56.80
61398;DHT22;47267;48.130;-2.040;2022-08-19T00:16:26;25.30;56.70
61398;DHT22;47267;48.130;-2.040;2022-08-19T00:18:53;25.40;56.70
61398;DHT22;47267;48.130;-2.040;2022-08-19T00:21:23;25.30;56.70
61398;DHT22;47267;48.130;-2.040;2022-08-19T00:23:49;25.30;56.70
61398;DHT22;47267;48.130;-2.040;2022-08-19T00:26:16;25.30;56.60
61398;DHT22;47267;48.130;-2.040;2022-08-19T00:28:42;25.30;56.70
61398;DHT22;47267;48.130;-2.040;2022-08-19T00:31:08;25.30;56.70
61398;DHT22;47267;48.130;-2.040;2022-08-19T00:33:35;25.30;56.60
61398;DHT22;47267;48.130;-2.040;2022-08-19T00:36:08;25.30;56.60
61398;DHT22;47267;48.130;-2.040;2022-08-19T00:38:36;25.30;56.60
61398;DHT22;47267;48.130;-2.040;2022-08-19T00:41:02;25.30;56.60
61398;DHT22;47267;48.130;-2.040;2022-08-19T00:43:27;25.30;56.70
61398;DHT22;47267;48.130;-2.040;2022-08-19T00:45:54;25.30;56.60
61398;DHT22;47267;48.130;-2.040;2022-08-19T00:48:22;25.20;56.60
61398;DHT22;47267;48.130;-2.040;2022-08-19T00:50:49;25.20;56.60
61398;DHT22;47267;48.130;-2.040;2022-08-19T00:53:23;25.20;56.60
61398;DHT22;47267;48.130;-2.040;2022-08-19T00:55:51;25.20;56.60
61398;DHT22;47267;48.130;-2.040;2022-08-19T00:58:20;25.20;56.60
61398;DHT22;47267;48.130;-2.040;2022-08-19T01:00:47;25.20;56.60
61398;DHT22;47267;48.130;-2.040;2022-08-19T01:03:20;25.20;56.50
61398;DHT22;47267;48.130;-2.040;2022-08-19T01:05:47;25.20;56.60
61398;DHT22;47267;48.130;-2.040;2022-08-19T01:08:16;25.20;56.50
61398;DHT22;47267;48.130;-2.040;2022-08-19T01:10:46;25.20;56.50
61398;DHT22;47267;48.130;-2.040;2022-08-19T01:13:15;25.20;56.50
61398;DHT22;47267;48.130;-2.040;2022-08-19T01:16:03;25.20;56.60
61398;DHT22;47267;48.130;-2.040;2022-08-19T01:18:30;25.10;56.50
61398;DHT22;47267;48.130;-2.040;2022-08-19T01:21:09;25.10;56.50
61398;DHT22;47267;48.130;-2.040;2022-08-19T01:23:43;25.10;56.50
61398;DHT22;47267;48.130;-2.040;2022-08-19T01:26:21;25.10;56.50
61398;DHT22;47267;48.130;-2.040;2022-08-19T01:28:50;25.10;56.50
61398;DHT22;47267;48.130;-2.040;2022-08-19T01:31:19;25.10;56.50
61398;DHT22;47267;48.130;-2.040;2022-08-19T01:33:48;25.10;56.50
61398;DHT22;47267;48.130;-2.040;2022-08-19T01:36:22;25.10;56.50
61398;DHT22;47267;48.130;-2.040;2022-08-19T01:38:48;25.10;56.50
61398;DHT22;47267;48.130;-2.040;2022-08-19T01:41:16;25.10;56.50
61398;DHT22;47267;48.130;-2.040;2022-08-19T01:43:43;25.10;56.50
61398;DHT22;47267;48.130;-2.040;2022-08-19T01:46:09;25.10;56.50
61398;DHT22;47267;48.130;-2.040;2022-08-19T01:48:37;25.00;56.50
61398;DHT22;47267;48.130;-2.040;2022-08-19T01:51:04;25.00;56.40
61398;DHT22;47267;48.130;-2.040;2022-08-19T01:53:30;25.00;56.50
61398;DHT22;47267;48.130;-2.040;2022-08-19T01:55:56;25.00;56.50
61398;DHT22;47267;48.130;-2.040;2022-08-19T01:58:28;25.00;56.40
61398;DHT22;47267;48.130;-2.040;2022-08-19T02:00:56;25.00;56.50
61398;DHT22;47267;48.130;-2.040;2022-08-19T02:03:21;25.00;56.50
61398;DHT22;47267;48.130;-2.040;2022-08-19T02:05:58;25.00;56.50
61398;DHT22;47267;48.130;-2.040;2022-08-19T02:08:26;25.00;56.50
61398;DHT22;47267;48.130;-2.040;2022-08-19T02:10:53;25.00;56.50
61398;DHT22;47267;48.130;-2.040;2022-08-19T02:13:19;25.00;56.50
61398;DHT22;47267;48.130;-2.040;2022-08-19T02:15:45;25.00;56.50
61398;DHT22;47267;48.130;-2.040;2022-08-19T02:18:14;25.00;56.50
61398;DHT22;47267;48.130;-2.040;2022-08-19T02:20:41;24.90;56.40
61398;DHT22;47267;48.130;-2.040;2022-08-19T02:23:07;24.90;56.40
61398;DHT22;47267;48.130;-2.040;2022-08-19T02:25:33;24.90;56.40
61398;DHT22;47267;48.130;-2.040;2022-08-19T02:27:59;24.90;56.40
61398;DHT22;47267;48.130;-2.040;2022-08-19T02:30:37;24.90;56.40
61398;DHT22;47267;48.130;-2.040;2022-08-19T02:33:04;24.90;56.40
61398;DHT22;47267;48.130;-2.040;2022-08-19T02:35:30;24.90;56.40
61398;DHT22;47267;48.130;-2.040;2022-08-19T02:37:56;24.90;56.40
61398;DHT22;47267;48.130;-2.040;2022-08-19T02:40:47;24.90;56.40
61398;DHT22;47267;48.130;-2.040;2022-08-19T02:43:15;24.90;56.40
61398;DHT22;47267;48.130;-2.040;2022-08-19T02:45:41;24.90;56.40
61398;DHT22;47267;48.130;-2.040;2022-08-19T02:48:07;24.90;56.40
61398;DHT22;47267;48.130;-2.040;2022-08-19T02:50:39;24.90;56.40
61398;DHT22;47267;48.130;-2.040;2022-08-19T02:53:05;24.80;56.40
61398;DHT22;47267;48.130;-2.040;2022-08-19T02:55:34;24.90;56.50
61398;DHT22;47267;48.130;-2.040;2022-08-19T02:58:00;24.90;56.50
61398;DHT22;47267;48.130;-2.040;2022-08-19T03:00:26;24.80;56.40
61398;DHT22;47267;48.130;-2.040;2022-08-19T03:02:58;24.90;56.50
61398;DHT22;47267;48.130;-2.040;2022-08-19T03:05:25;24.80;56.40
61398;DHT22;47267;48.130;-2.040;2022-08-19T03:07:52;24.80;56.40
61398;DHT22;47267;48.130;-2.040;2022-08-19T03:10:18;24.80;56.50
61398;DHT22;47267;48.130;-2.040;2022-08-19T03:12:44;24.80;56.40
61398;DHT22;47267;48.130;-2.040;2022-08-19T03:15:24;24.80;56.50
61398;DHT22;47267;48.130;-2.040;2022-08-19T03:17:49;24.80;56.40
61398;DHT22;47267;48.130;-2.040;2022-08-19T03:20:15;24.80;56.50
61398;DHT22;47267;48.130;-2.040;2022-08-19T03:22:41;24.80;56.50
61398;DHT22;47267;48.130;-2.040;2022-08-19T03:25:07;24.80;56.50
61398;DHT22;47267;48.130;-2.040;2022-08-19T03:27:33;24.80;56.50
61398;DHT22;47267;48.130;-2.040;2022-08-19T03:29:58;24.80;56.50
61398;DHT22;47267;48.130;-2.040;2022-08-19T03:32:24;24.80;56.50
61398;DHT22;47267;48.130;-2.040;2022-08-19T03:34:50;24.80;56.50
61398;DHT22;47267;48.130;-2.040;2022-08-19T03:37:17;24.80;56.50
61398;DHT22;47267;48.130;-2.040;2022-08-19T03:39:43;24.70;56.40
61398;DHT22;47267;48.130;-2.040;2022-08-19T03:42:09;24.80;56.50
61398;DHT22;47267;48.130;-2.040;2022-08-19T03:44:35;24.70;56.50
61398;DHT22;47267;48.130;-2.040;2022-08-19T03:47:03;24.70;57.00
61398;DHT22;47267;48.130;-2.040;2022-08-19T03:49:31;24.80;56.50
61398;DHT22;47267;48.130;-2.040;2022-08-19T03:51:59;24.70;56.50
61398;DHT22;47267;48.130;-2.040;2022-08-19T03:54:30;24.70;56.50
61398;DHT22;47267;48.130;-2.040;2022-08-19T03:56:56;24.70;56.50
61398;DHT22;47267;48.130;-2.040;2022-08-19T03:59:31;24.70;56.50
61398;DHT22;47267;48.130;-2.040;2022-08-19T04:02:05;24.70;56.50
61398;DHT22;47267;48.130;-2.040;2022-08-19T04:04:43;24.70;56.50
61398;DHT22;47267;48.130;-2.040;2022-08-19T04:07:09;24.70;56.50
61398;DHT22;47267;48.130;-2.040;2022-08-19T04:09:42;24.70;56.50
61398;DHT22;47267;48.130;-2.040;2022-08-19T04:12:07;24.70;56.50
61398;DHT22;47267;48.130;-2.040;2022-08-19T04:14:34;24.70;56.50
61398;DHT22;47267;48.130;-2.040;2022-08-19T04:17:02;24.60;56.40
61398;DHT22;47267;48.130;-2.040;2022-08-19T04:19:30;24.60;56.40
61398;DHT22;47267;48.130;-2.040;2022-08-19T04:21:56;24.70;56.50
61398;DHT22;47267;48.130;-2.040;2022-08-19T04:24:22;24.70;56.50
61398;DHT22;47267;48.130;-2.040;2022-08-19T04:26:51;24.60;56.40
61398;DHT22;47267;48.130;-2.040;2022-08-19T04:29:23;24.60;56.40
61398;DHT22;47267;48.130;-2.040;2022-08-19T04:31:51;24.60;56.50
61398;DHT22;47267;48.130;-2.040;2022-08-19T04:34:24;24.60;56.50
61398;DHT22;47267;48.130;-2.040;2022-08-19T04:36:54;24.60;56.50
61398;DHT22;47267;48.130;-2.040;2022-08-19T04:39:24;24.60;56.50
61398;DHT22;47267;48.130;-2.040;2022-08-19T04:42:11;24.60;56.50
61398;DHT22;47267;48.130;-2.040;2022-08-19T04:45:14;24.60;56.50
61398;DHT22;47267;48.130;-2.040;2022-08-19T04:47:42;24.60;56.50
61398;DHT22;47267;48.130;-2.040;2022-08-19T04:50:13;24.60;56.50
61398;DHT22;47267;48.130;-2.040;2022-08-19T04:52:44;24.60;56.50
61398;DHT22;47267;48.130;-2.040;2022-08-19T04:55:13;24.60;56.50
61398;DHT22;47267;48.130;-2.040;2022-08-19T04:57:40;24.60;56.50
61398;DHT22;47267;48.130;-2.040;2022-08-19T05:00:12;24.60;56.60
61398;DHT22;47267;48.130;-2.040;2022-08-19T05:02:38;24.60;56.50
61398;DHT22;47267;48.130;-2.040;2022-08-19T05:05:04;24.60;56.50
61398;DHT22;47267;48.130;-2.040;2022-08-19T05:07:35;24.60;56.50
61398;DHT22;47267;48.130;-2.040;2022-08-19T05:10:02;24.60;56.50
61398;DHT22;47267;48.130;-2.040;2022-08-19T05:12:28;24.60;56.60
61398;DHT22;47267;48.130;-2.040;2022-08-19T05:14:54;24.60;56.60
61398;DHT22;47267;48.130;-2.040;2022-08-19T05:17:22;24.60;56.60
61398;DHT22;47267;48.130;-2.040;2022-08-19T05:19:48;24.60;56.60
61398;DHT22;47267;48.130;-2.040;2022-08-19T05:22:32;24.60;56.60
61398;DHT22;47267;48.130;-2.040;2022-08-19T05:25:03;24.60;56.60
61398;DHT22;47267;48.130;-2.040;2022-08-19T05:27:31;24.60;56.60
61398;DHT22;47267;48.130;-2.040;2022-08-19T05:30:00;24.50;56.60
61398;DHT22;47267;48.130;-2.040;2022-08-19T05:32:27;24.50;56.60
61398;DHT22;47267;48.130;-2.040;2022-08-19T05:34:56;24.50;56.60
61398;DHT22;47267;48.130;-2.040;2022-08-19T05:37:23;24.50;56.60
61398;DHT22;47267;48.130;-2.040;2022-08-19T05:39:52;24.50;56.60
61398;DHT22;47267;48.130;-2.040;2022-08-19T05:42:18;24.50;56.60
61398;DHT22;47267;48.130;-2.040;2022-08-19T05:44:45;24.60;56.70
61398;DHT22;47267;48.130;-2.040;2022-08-19T05:47:13;24.50;57.20
61398;DHT22;47267;48.130;-2.040;2022-08-19T05:49:46;24.50;56.70
61398;DHT22;47267;48.130;-2.040;2022-08-19T05:52:13;24.50;56.70
61398;DHT22;47267;48.130;-2.040;2022-08-19T05:54:41;24.50;56.70
61398;DHT22;47267;48.130;-2.040;2022-08-19T05:57:08;24.50;56.70
61398;DHT22;47267;48.130;-2.040;2022-08-19T05:59:34;24.50;56.70
61398;DHT22;47267;48.130;-2.040;2022-08-19T06:02:05;24.50;56.70
61398;DHT22;47267;48.130;-2.040;2022-08-19T06:04:34;24.50;56.70
61398;DHT22;47267;48.130;-2.040;2022-08-19T06:07:00;24.50;56.70
61398;DHT22;47267;48.130;-2.040;2022-08-19T06:09:27;24.50;56.70
61398;DHT22;47267;48.130;-2.040;2022-08-19T06:11:58;24.50;56.70
61398;DHT22;47267;48.130;-2.040;2022-08-19T06:14:28;24.50;56.70
61398;DHT22;47267;48.130;-2.040;2022-08-19T06:16:55;24.50;56.70
61398;DHT22;47267;48.130;-2.040;2022-08-19T06:19:22;24.50;56.70
61398;DHT22;47267;48.130;-2.040;2022-08-19T06:21:52;24.50;56.80
61398;DHT22;47267;48.130;-2.040;2022-08-19T06:24:21;24.50;56.80
61398;DHT22;47267;48.130;-2.040;2022-08-19T06:26:50;24.50;56.80
61398;DHT22;47267;48.130;-2.040;2022-08-19T06:29:21;24.50;56.80
61398;DHT22;47267;48.130;-2.040;2022-08-19T06:31:51;24.50;56.80
61398;DHT22;47267;48.130;-2.040;2022-08-19T06:34:18;24.50;56.80
61398;DHT22;47267;48.130;-2.040;2022-08-19T06:36:47;24.50;56.80
61398;DHT22;47267;48.130;-2.040;2022-08-19T06:39:25;24.50;56.80
61398;DHT22;47267;48.130;-2.040;2022-08-19T06:41:55;24.50;56.80
61398;DHT22;47267;48.130;-2.040;2022-08-19T06:44:24;24.40;56.80
61398;DHT22;47267;48.130;-2.040;2022-08-19T06:46:51;24.40;56.80
61398;DHT22;47267;48.130;-2.040;2022-08-19T06:49:20;24.40;56.80
61398;DHT22;47267;48.130;-2.040;2022-08-19T06:51:47;24.50;56.90
61398;DHT22;47267;48.130;-2.040;2022-08-19T06:54:14;24.50;56.80
61398;DHT22;47267;48.130;-2.040;2022-08-19T06:56:40;24.40;57.00
61398;DHT22;47267;48.130;-2.040;2022-08-19T06:59:08;24.50;56.90
61398;DHT22;47267;48.130;-2.040;2022-08-19T07:01:45;24.40;57.40
61398;DHT22;47267;48.130;-2.040;2022-08-19T07:04:13;24.40;56.80
61398;DHT22;47267;48.130;-2.040;2022-08-19T07:06:41;24.50;56.90
61398;DHT22;47267;48.130;-2.040;2022-08-19T07:09:09;24.40;56.90
61398;DHT22;47267;48.130;-2.040;2022-08-19T07:11:35;24.40;56.90
61398;DHT22;47267;48.130;-2.040;2022-08-19T07:14:02;24.50;56.90
61398;DHT22;47267;48.130;-2.040;2022-08-19T07:16:29;24.40;56.90
61398;DHT22;47267;48.130;-2.040;2022-08-19T07:18:56;24.40;57.00
61398;DHT22;47267;48.130;-2.040;2022-08-19T07:21:25;24.40;56.90
61398;DHT22;47267;48.130;-2.040;2022-08-19T07:23:55;24.40;56.90
61398;DHT22;47267;48.130;-2.040;2022-08-19T07:26:24;24.40;56.90
61398;DHT22;47267;48.130;-2.040;2022-08-19T07:28:51;24.40;57.00
61398;DHT22;47267;48.130;-2.040;2022-08-19T07:31:25;24.40;56.90
61398;DHT22;47267;48.130;-2.040;2022-08-19T07:33:53;24.40;56.90
61398;DHT22;47267;48.130;-2.040;2022-08-19T07:36:27;24.40;57.00
61398;DHT22;47267;48.130;-2.040;2022-08-19T07:38:58;24.40;57.00
61398;DHT22;47267;48.130;-2.040;2022-08-19T07:41:26;24.40;57.00
61398;DHT22;47267;48.130;-2.040;2022-08-19T07:43:54;24.40;57.00
61398;DHT22;47267;48.130;-2.040;2022-08-19T07:49:54;24.40;57.00
61398;DHT22;47267;48.130;-2.040;2022-08-19T07:52:20;24.40;57.10
61398;DHT22;47267;48.130;-2.040;2022-08-19T07:54:46;24.40;57.10
61398;DHT22;47267;48.130;-2.040;2022-08-19T07:57:12;24.40;57.10
61398;DHT22;47267;48.130;-2.040;2022-08-19T07:59:37;24.40;57.10
61398;DHT22;47267;48.130;-2.040;2022-08-19T08:02:04;24.40;57.10
61398;DHT22;47267;48.130;-2.040;2022-08-19T08:04:31;24.40;57.20
61398;DHT22;47267;48.130;-2.040;2022-08-19T08:07:15;24.40;57.20
61398;DHT22;47267;48.130;-2.040;2022-08-19T08:10:00;24.40;57.20
61398;DHT22;47267;48.130;-2.040;2022-08-19T08:12:31;24.40;57.20
61398;DHT22;47267;48.130;-2.040;2022-08-19T08:15:00;24.40;57.30
61398;DHT22;47267;48.130;-2.040;2022-08-19T08:17:30;24.40;57.30
61398;DHT22;47267;48.130;-2.040;2022-08-19T08:19:57;24.40;57.30
61398;DHT22;47267;48.130;-2.040;2022-08-19T08:22:24;24.40;57.30
61398;DHT22;47267;48.130;-2.040;2022-08-19T08:25:11;24.40;57.40
61398;DHT22;47267;48.130;-2.040;2022-08-19T08:27:42;24.40;57.30
61398;DHT22;47267;48.130;-2.040;2022-08-19T08:30:14;24.40;57.40
61398;DHT22;47267;48.130;-2.040;2022-08-19T08:32:40;24.40;57.30
61398;DHT22;47267;48.130;-2.040;2022-08-19T08:35:09;24.40;57.40
61398;DHT22;47267;48.130;-2.040;2022-08-19T08:37:35;24.50;57.60
61398;DHT22;47267;48.130;-2.040;2022-08-19T08:40:16;24.40;57.70
61398;DHT22;47267;48.130;-2.040;2022-08-19T08:42:51;24.40;57.60
61398;DHT22;47267;48.130;-2.040;2022-08-19T08:45:20;24.40;57.70
61398;DHT22;47267;48.130;-2.040;2022-08-19T08:47:49;24.50;57.80
61398;DHT22;47267;48.130;-2.040;2022-08-19T08:50:29;24.50;58.00
61398;DHT22;47267;48.130;-2.040;2022-08-19T08:52:58;24.50;58.30
61398;DHT22;47267;48.130;-2.040;2022-08-19T08:55:27;24.50;60.00
61398;DHT22;47267;48.130;-2.040;2022-08-19T08:58:03;24.60;60.60
61398;DHT22;47267;48.130;-2.040;2022-08-19T09:00:34;24.60;61.10
61398;DHT22;47267;48.130;-2.040;2022-08-19T09:03:01;24.60;61.30
61398;DHT22;47267;48.130;-2.040;2022-08-19T09:08:16;24.60;60.80
61398;DHT22;47267;48.130;-2.040;2022-08-19T09:10:48;24.60;61.90
61398;DHT22;47267;48.130;-2.040;2022-08-19T09:16:06;24.60;60.60
61398;DHT22;47267;48.130;-2.040;2022-08-19T09:18:46;24.60;60.40
61398;DHT22;47267;48.130;-2.040;2022-08-19T09:21:15;24.60;60.40
61398;DHT22;47267;48.130;-2.040;2022-08-19T09:23:41;24.60;60.50
61398;DHT22;47267;48.130;-2.040;2022-08-19T09:26:10;24.60;60.30
61398;DHT22;47267;48.130;-2.040;2022-08-19T09:28:40;24.60;60.00
61398;DHT22;47267;48.130;-2.040;2022-08-19T09:31:10;24.60;60.60
61398;DHT22;47267;48.130;-2.040;2022-08-19T09:33:37;24.60;61.90
61398;DHT22;47267;48.130;-2.040;2022-08-19T09:36:06;24.70;61.30
61398;DHT22;47267;48.130;-2.040;2022-08-19T09:38:34;24.70;61.10
61398;DHT22;47267;48.130;-2.040;2022-08-19T09:41:08;24.70;61.30
61398;DHT22;47267;48.130;-2.040;2022-08-19T09:43:38;24.70;61.50
61398;DHT22;47267;48.130;-2.040;2022-08-19T09:46:05;24.70;61.80
61398;DHT22;47267;48.130;-2.040;2022-08-19T09:48:38;24.80;61.30
61398;DHT22;47267;48.130;-2.040;2022-08-19T09:51:09;24.80;61.20
61398;DHT22;47267;48.130;-2.040;2022-08-19T09:53:37;24.80;62.20
61398;DHT22;47267;48.130;-2.040;2022-08-19T09:56:05;24.80;61.30
61398;DHT22;47267;48.130;-2.040;2022-08-19T09:58:32;24.80;61.60
61398;DHT22;47267;48.130;-2.040;2022-08-19T10:01:00;24.80;61.60
61398;DHT22;47267;48.130;-2.040;2022-08-19T10:03:28;24.80;61.50
61398;DHT22;47267;48.130;-2.040;2022-08-19T10:05:56;24.80;61.50
61398;DHT22;47267;48.130;-2.040;2022-08-19T10:08:26;24.80;61.00
61398;DHT22;47267;48.130;-2.040;2022-08-19T10:10:52;24.80;60.90
61398;DHT22;47267;48.130;-2.040;2022-08-19T10:13:20;24.80;61.10
61398;DHT22;47267;48.130;-2.040;2022-08-19T10:15:49;24.80;61.20
61398;DHT22;47267;48.130;-2.040;2022-08-19T10:18:20;24.80;61.30
61398;DHT22;47267;48.130;-2.040;2022-08-19T10:20:47;24.90;60.90
61398;DHT22;47267;48.130;-2.040;2022-08-19T10:23:15;24.80;60.80
61398;DHT22;47267;48.130;-2.040;2022-08-19T10:25:42;24.80;61.00
61398;DHT22;47267;48.130;-2.040;2022-08-19T10:28:09;24.90;60.80
61398;DHT22;47267;48.130;-2.040;2022-08-19T10:30:38;24.90;60.80
61398;DHT22;47267;48.130;-2.040;2022-08-19T10:33:05;24.90;61.00
61398;DHT22;47267;48.130;-2.040;2022-08-19T10:35:31;24.90;61.60
61398;DHT22;47267;48.130;-2.040;2022-08-19T10:37:57;24.90;60.80
61398;DHT22;47267;48.130;-2.040;2022-08-19T10:40:25;24.90;60.50
61398;DHT22;47267;48.130;-2.040;2022-08-19T10:42:52;24.90;61.40
61398;DHT22;47267;48.130;-2.040;2022-08-19T10:45:18;25.00;60.90
61398;DHT22;47267;48.130;-2.040;2022-08-19T10:47:43;25.00;61.40
61398;DHT22;47267;48.130;-2.040;2022-08-19T10:50:09;25.00;61.50
61398;DHT22;47267;48.130;-2.040;2022-08-19T10:52:53;25.00;61.30
61398;DHT22;47267;48.130;-2.040;2022-08-19T10:55:23;25.00;61.60
61398;DHT22;47267;48.130;-2.040;2022-08-19T10:58:18;25.00;61.40
61398;DHT22;47267;48.130;-2.040;2022-08-19T11:00:57;25.00;61.30
61398;DHT22;47267;48.130;-2.040;2022-08-19T11:03:24;25.00;61.20
61398;DHT22;47267;48.130;-2.040;2022-08-19T11:05:59;25.00;62.00
61398;DHT22;47267;48.130;-2.040;2022-08-19T11:08:24;25.10;61.10
61398;DHT22;47267;48.130;-2.040;2022-08-19T11:10:53;25.10;61.50
61398;DHT22;47267;48.130;-2.040;2022-08-19T11:13:21;25.10;61.10
61398;DHT22;47267;48.130;-2.040;2022-08-19T11:15:59;25.10;61.40
61398;DHT22;47267;48.130;-2.040;2022-08-19T11:18:25;25.10;61.30
61398;DHT22;47267;48.130;-2.040;2022-08-19T11:20:52;25.10;61.60
61398;DHT22;47267;48.130;-2.040;2022-08-19T11:23:18;25.10;61.60
61398;DHT22;47267;48.130;-2.040;2022-08-19T11:25:44;25.20;61.40
61398;DHT22;47267;48.130;-2.040;2022-08-19T11:28:11;25.20;61.60
61398;DHT22;47267;48.130;-2.040;2022-08-19T11:30:38;25.20;61.60
61398;DHT22;47267;48.130;-2.040;2022-08-19T11:33:04;25.20;61.40
61398;DHT22;47267;48.130;-2.040;2022-08-19T11:35:30;25.20;61.10
61398;DHT22;47267;48.130;-2.040;2022-08-19T11:37:55;25.20;61.30
61398;DHT22;47267;48.130;-2.040;2022-08-19T11:40:26;25.20;61.40
61398;DHT22;47267;48.130;-2.040;2022-08-19T11:42:52;25.20;61.30
61398;DHT22;47267;48.130;-2.040;2022-08-19T11:45:25;25.20;61.40
61398;DHT22;47267;48.130;-2.040;2022-08-19T11:47:52;25.20;61.30
61398;DHT22;47267;48.130;-2.040;2022-08-19T11:50:18;25.20;61.20
61398;DHT22;47267;48.130;-2.040;2022-08-19T11:52:45;25.20;61.20
61398;DHT22;47267;48.130;-2.040;2022-08-19T11:55:13;25.20;61.60
61398;DHT22;47267;48.130;-2.040;2022-08-19T11:57:40;25.20;61.40
61398;DHT22;47267;48.130;-2.040;2022-08-19T12:00:07;25.30;61.30
61398;DHT22;47267;48.130;-2.040;2022-08-19T12:02:34;25.30;61.40
61398;DHT22;47267;48.130;-2.040;2022-08-19T12:04:59;25.30;61.30
61398;DHT22;47267;48.130;-2.040;2022-08-19T12:07:29;25.30;61.20
61398;DHT22;47267;48.130;-2.040;2022-08-19T12:09:59;25.30;61.00
61398;DHT22;47267;48.130;-2.040;2022-08-19T12:12:25;25.30;61.10
61398;DHT22;47267;48.130;-2.040;2022-08-19T12:14:51;25.30;61.10
61398;DHT22;47267;48.130;-2.040;2022-08-19T12:17:23;25.30;60.90
61398;DHT22;47267;48.130;-2.040;2022-08-19T12:19:49;25.40;61.00
61398;DHT22;47267;48.130;-2.040;2022-08-19T12:22:15;25.40;60.90
61398;DHT22;47267;48.130;-2.040;2022-08-19T12:24:41;25.30;60.90
61398;DHT22;47267;48.130;-2.040;2022-08-19T12:27:07;25.40;60.90
61398;DHT22;47267;48.130;-2.040;2022-08-19T12:29:33;25.40;60.90
61398;DHT22;47267;48.130;-2.040;2022-08-19T12:31:59;25.40;60.90
61398;DHT22;47267;48.130;-2.040;2022-08-19T12:34:30;25.40;60.60
61398;DHT22;47267;48.130;-2.040;2022-08-19T12:36:58;25.40;60.50
61398;DHT22;47267;48.130;-2.040;2022-08-19T12:39:24;25.40;60.30
61398;DHT22;47267;48.130;-2.040;2022-08-19T12:41:50;25.30;60.30
61398;DHT22;47267;48.130;-2.040;2022-08-19T12:44:17;25.30;60.20
61398;DHT22;47267;48.130;-2.040;2022-08-19T12:46:42;25.30;60.50
61398;DHT22;47267;48.130;-2.040;2022-08-19T12:49:08;25.40;60.40
61398;DHT22;47267;48.130;-2.040;2022-08-19T12:51:34;25.40;60.50
61398;DHT22;47267;48.130;-2.040;2022-08-19T12:53:59;25.40;60.40
61398;DHT22;47267;48.130;-2.040;2022-08-19T12:56:26;25.40;60.50
61398;DHT22;47267;48.130;-2.040;2022-08-19T12:58:52;25.40;60.50
61398;DHT22;47267;48.130;-2.040;2022-08-19T13:01:19;25.40;60.50
61398;DHT22;47267;48.130;-2.040;2022-08-19T13:03:46;25.40;60.40
61398;DHT22;47267;48.130;-2.040;2022-08-19T13:06:12;25.40;60.40
61398;DHT22;47267;48.130;-2.040;2022-08-19T13:08:39;25.40;60.40
61398;DHT22;47267;48.130;-2.040;2022-08-19T13:11:11;25.40;60.50
61398;DHT22;47267;48.130;-2.040;2022-08-19T13:13:39;25.40;60.30
61398;DHT22;47267;48.130;-2.040;2022-08-19T13:16:07;25.40;60.20
61398;DHT22;47267;48.130;-2.040;2022-08-19T13:18:33;25.50;60.30
61398;DHT22;47267;48.130;-2.040;2022-08-19T13:21:07;25.50;60.60
61398;DHT22;47267;48.130;-2.040;2022-08-19T13:23:34;25.50;60.50
61398;DHT22;47267;48.130;-2.040;2022-08-19T13:26:03;25.50;60.80
61398;DHT22;47267;48.130;-2.040;2022-08-19T13:28:32;25.50;60.90
61398;DHT22;47267;48.130;-2.040;2022-08-19T13:31:18;25.50;61.20
61398;DHT22;47267;48.130;-2.040;2022-08-19T13:34:06;25.50;60.30
61398;DHT22;47267;48.130;-2.040;2022-08-19T13:36:36;25.50;60.30
61398;DHT22;47267;48.130;-2.040;2022-08-19T13:39:03;25.50;60.30
61398;DHT22;47267;48.130;-2.040;2022-08-19T13:41:29;25.50;60.40
61398;DHT22;47267;48.130;-2.040;2022-08-19T13:43:55;25.50;60.30
61398;DHT22;47267;48.130;-2.040;2022-08-19T13:46:21;25.50;60.30
61398;DHT22;47267;48.130;-2.040;2022-08-19T13:48:49;25.50;60.10
61398;DHT22;47267;48.130;-2.040;2022-08-19T13:51:17;25.50;60.00
61398;DHT22;47267;48.130;-2.040;2022-08-19T13:53:44;25.50;60.00
61398;DHT22;47267;48.130;-2.040;2022-08-19T13:56:12;25.50;60.00
61398;DHT22;47267;48.130;-2.040;2022-08-19T13:58:38;25.50;60.00
61398;DHT22;47267;48.130;-2.040;2022-08-19T14:01:05;25.50;59.90
61398;DHT22;47267;48.130;-2.040;2022-08-19T14:03:32;25.50;59.90
61398;DHT22;47267;48.130;-2.040;2022-08-19T14:05:58;25.50;59.90
61398;DHT22;47267;48.130;-2.040;2022-08-19T14:08:25;25.50;59.90
61398;DHT22;47267;48.130;-2.040;2022-08-19T14:10:53;25.50;59.90
61398;DHT22;47267;48.130;-2.040;2022-08-19T14:13:22;25.40;59.80
61398;DHT22;47267;48.130;-2.040;2022-08-19T14:15:49;25.50;59.80
61398;DHT22;47267;48.130;-2.040;2022-08-19T14:18:17;25.50;59.80
61398;DHT22;47267;48.130;-2.040;2022-08-19T14:20:44;25.40;59.80
61398;DHT22;47267;48.130;-2.040;2022-08-19T14:23:10;25.40;59.70
61398;DHT22;47267;48.130;-2.040;2022-08-19T14:25:37;25.40;59.70
61398;DHT22;47267;48.130;-2.040;2022-08-19T14:28:03;25.40;59.70
61398;DHT22;47267;48.130;-2.040;2022-08-19T14:30:32;25.40;59.70
61398;DHT22;47267;48.130;-2.040;2022-08-19T14:33:00;25.40;59.70
61398;DHT22;47267;48.130;-2.040;2022-08-19T14:35:29;25.40;59.80
61398;DHT22;47267;48.130;-2.040;2022-08-19T14:37:56;25.40;59.70
61398;DHT22;47267;48.130;-2.040;2022-08-19T14:40:24;25.40;59.70
61398;DHT22;47267;48.130;-2.040;2022-08-19T14:42:55;25.40;59.70
61398;DHT22;47267;48.130;-2.040;2022-08-19T14:45:26;25.30;59.70
61398;DHT22;47267;48.130;-2.040;2022-08-19T14:47:53;25.30;59.70
61398;DHT22;47267;48.130;-2.040;2022-08-19T14:50:19;25.30;59.70
61398;DHT22;47267;48.130;-2.040;2022-08-19T14:52:49;25.30;59.70
61398;DHT22;47267;48.130;-2.040;2022-08-19T14:55:16;25.30;59.70
61398;DHT22;47267;48.130;-2.040;2022-08-19T14:57:43;25.30;59.70
61398;DHT22;47267;48.130;-2.040;2022-08-19T15:00:10;25.30;59.70
61398;DHT22;47267;48.130;-2.040;2022-08-19T15:02:39;25.30;59.70
61398;DHT22;47267;48.130;-2.040;2022-08-19T15:05:05;25.30;59.70
61398;DHT22;47267;48.130;-2.040;2022-08-19T15:07:31;25.30;59.70
61398;DHT22;47267;48.130;-2.040;2022-08-19T15:09:57;25.30;59.70
61398;DHT22;47267;48.130;-2.040;2022-08-19T15:12:24;25.20;59.60
61398;DHT22;47267;48.130;-2.040;2022-08-19T15:14:50;25.30;59.70
61398;DHT22;47267;48.130;-2.040;2022-08-19T15:17:17;25.20;59.60
61398;DHT22;47267;48.130;-2.040;2022-08-19T15:19:43;25.20;59.60
61398;DHT22;47267;48.130;-2.040;2022-08-19T15:22:09;25.20;59.60
61398;DHT22;47267;48.130;-2.040;2022-08-19T15:24:35;25.20;59.60
61398;DHT22;47267;48.130;-2.040;2022-08-19T15:27:02;25.20;59.60
61398;DHT22;47267;48.130;-2.040;2022-08-19T15:29:28;25.20;59.60
61398;DHT22;47267;48.130;-2.040;2022-08-19T15:31:54;25.20;59.60
61398;DHT22;47267;48.130;-2.040;2022-08-19T15:34:24;25.20;59.60